createdAt,value
2018-10-02T00:02:18.942Z,8.70
2018-10-02T00:04:46.338Z,8.60
2018-10-02T00:07:13.766Z,8.60
2018-10-02T00:09:41.273Z,8.60
2018-10-02T00:12:14.356Z,8.60
2018-10-02T00:14:41.691Z,8.60
2018-10-02T00:17:09.070Z,8.50
2018-10-02T00:19:36.440Z,8.60
2018-10-02T00:22:03.863Z,8.60
2018-10-02T00:24:31.210Z,8.40
2018-10-02T00:26:58.566Z,8.50
2018-10-02T00:29:25.912Z,8.40
2018-10-02T00:31:53.369Z,8.40
2018-10-02T00:34:20.793Z,8.40
2018-10-02T00:36:48.273Z,8.30
2018-10-02T00:39:15.738Z,8.30
2018-10-02T00:41:43.093Z,8.20
2018-10-02T00:44:10.508Z,8.20
2018-10-02T00:46:37.982Z,8.10
2018-10-02T00:49:05.421Z,8.20
2018-10-02T00:51:32.757Z,8.20
2018-10-02T00:54:00.297Z,8.20
2018-10-02T00:56:27.657Z,8.00
2018-10-02T00:58:55.073Z,8.00
2018-10-02T01:01:22.463Z,7.90
2018-10-02T01:03:49.901Z,7.90
2018-10-02T01:06:17.287Z,8.00
2018-10-02T01:08:44.677Z,7.90
2018-10-02T01:11:12.140Z,7.80
2018-10-02T01:13:39.511Z,8.00
2018-10-02T01:16:06.961Z,8.00
2018-10-02T01:18:34.409Z,7.90
2018-10-02T01:21:01.767Z,7.90
2018-10-02T01:23:29.196Z,8.00
2018-10-02T01:25:56.662Z,8.00
2018-10-02T01:28:24.027Z,8.00
2018-10-02T01:30:51.319Z,7.80
2018-10-02T01:33:18.720Z,7.80
2018-10-02T01:35:46.160Z,7.80
2018-10-02T01:38:13.626Z,7.80
2018-10-02T01:40:41.178Z,7.80
2018-10-02T01:43:08.588Z,7.80
2018-10-02T01:45:36.042Z,7.80
2018-10-02T01:48:04.282Z,7.70
2018-10-02T01:50:31.972Z,7.80
2018-10-02T01:52:59.664Z,7.70
2018-10-02T01:55:27.982Z,7.70
2018-10-02T01:57:55.462Z,7.60
2018-10-02T02:00:22.852Z,7.60
2018-10-02T02:02:50.260Z,7.50
2018-10-02T02:05:17.769Z,7.50
2018-10-02T02:07:45.199Z,7.40
2018-10-02T02:10:13.368Z,7.40
2018-10-02T02:12:40.986Z,7.50
2018-10-02T02:15:08.338Z,7.40
2018-10-02T02:17:35.811Z,7.40
2018-10-02T02:20:03.424Z,7.30
2018-10-02T02:22:30.784Z,7.10
2018-10-02T02:24:58.206Z,7.10
2018-10-02T02:27:25.601Z,7.10
2018-10-02T02:29:53.057Z,7.00
2018-10-02T02:32:20.626Z,7.00
2018-10-02T02:34:48.044Z,7.00
2018-10-02T02:37:15.498Z,6.90
2018-10-02T02:39:42.962Z,6.80
2018-10-02T02:42:10.401Z,6.80
2018-10-02T02:44:37.850Z,6.70
2018-10-02T02:47:10.889Z,6.60
2018-10-02T02:49:44.363Z,6.60
2018-10-02T02:52:12.866Z,6.70
2018-10-02T02:54:41.184Z,6.60
2018-10-02T02:57:08.976Z,6.60
2018-10-02T02:59:36.399Z,6.40
2018-10-02T03:02:03.806Z,6.40
2018-10-02T03:04:31.110Z,6.30
2018-10-02T03:06:58.503Z,6.20
2018-10-02T03:09:26.251Z,6.20
2018-10-02T03:11:53.948Z,6.10
2018-10-02T03:14:21.539Z,6.20
2018-10-02T03:16:48.925Z,6.10
2018-10-02T03:19:16.332Z,6.00
2018-10-02T03:21:43.805Z,6.00
2018-10-02T03:24:11.217Z,6.10
2018-10-02T03:26:38.647Z,5.90
2018-10-02T03:29:06.234Z,5.90
2018-10-02T03:31:33.784Z,5.90
2018-10-02T03:34:01.285Z,5.80
2018-10-02T03:36:28.722Z,5.70
2018-10-02T03:38:56.136Z,5.70
2018-10-02T03:41:23.569Z,5.60
2018-10-02T03:43:50.917Z,5.60
2018-10-02T03:46:18.292Z,5.60
2018-10-02T03:48:45.865Z,5.50
2018-10-02T03:51:13.217Z,5.50
2018-10-02T03:53:40.553Z,5.50
2018-10-02T03:56:08.026Z,5.50
2018-10-02T03:58:35.435Z,5.60
2018-10-02T04:01:03.022Z,5.60
2018-10-02T04:03:30.424Z,5.60
2018-10-02T04:05:57.773Z,5.60
2018-10-02T04:08:25.357Z,5.60
2018-10-02T04:10:52.717Z,5.60
2018-10-02T04:13:20.116Z,5.50
2018-10-02T04:15:52.425Z,5.60
2018-10-02T04:18:20.017Z,5.70
2018-10-02T04:20:47.432Z,5.60
2018-10-02T04:23:15.179Z,5.50
2018-10-02T04:25:42.623Z,5.60
2018-10-02T04:28:10.097Z,5.50
2018-10-02T04:30:37.522Z,5.60
2018-10-02T04:33:04.977Z,5.60
2018-10-02T04:35:32.401Z,5.60
2018-10-02T04:37:59.847Z,5.70
2018-10-02T04:40:27.253Z,5.70
2018-10-02T04:42:54.764Z,5.70
2018-10-02T04:45:22.195Z,5.90
2018-10-02T04:47:52.607Z,5.80
2018-10-02T04:50:20.403Z,5.80
2018-10-02T04:52:47.841Z,5.70
2018-10-02T04:55:15.345Z,5.70
2018-10-02T04:57:42.747Z,5.60
2018-10-02T05:00:10.137Z,5.60
2018-10-02T05:02:37.613Z,5.70
2018-10-02T05:05:05.125Z,5.70
2018-10-02T05:07:32.551Z,5.70
2018-10-02T05:09:59.964Z,5.70
2018-10-02T05:12:27.380Z,5.70
2018-10-02T05:14:54.857Z,5.80
2018-10-02T05:17:22.291Z,5.90
2018-10-02T05:19:49.720Z,5.90
2018-10-02T05:22:17.098Z,5.90
2018-10-02T05:24:44.478Z,5.90
2018-10-02T05:27:11.984Z,5.90
2018-10-02T05:29:39.342Z,5.80
2018-10-02T05:32:06.750Z,5.80
2018-10-02T05:34:34.159Z,5.90
2018-10-02T05:37:01.638Z,5.80
2018-10-02T05:39:29.107Z,5.80
2018-10-02T05:41:56.526Z,5.80
2018-10-02T05:44:23.958Z,5.80
2018-10-02T05:46:51.446Z,5.90
2018-10-02T05:49:18.832Z,6.00
2018-10-02T05:51:46.312Z,6.10
2018-10-02T05:54:13.738Z,6.10
2018-10-02T05:56:41.111Z,6.10
2018-10-02T05:59:08.558Z,6.00
2018-10-02T06:01:36.042Z,6.20
2018-10-02T06:04:03.475Z,6.20
2018-10-02T06:06:30.922Z,6.30
2018-10-02T06:08:58.715Z,6.30
2018-10-02T06:11:28.232Z,6.30
2018-10-02T06:13:56.306Z,6.50
2018-10-02T06:16:23.722Z,6.60
2018-10-02T06:18:51.178Z,6.50
2018-10-02T06:21:18.654Z,6.60
2018-10-02T06:23:46.281Z,6.60
2018-10-02T06:26:13.790Z,6.70
2018-10-02T06:28:41.262Z,6.80
2018-10-02T06:31:08.806Z,6.80
2018-10-02T06:33:36.234Z,6.90
2018-10-02T06:36:03.606Z,7.10
2018-10-02T06:38:31.085Z,7.20
2018-10-02T06:40:58.420Z,7.20
2018-10-02T06:43:25.832Z,7.20
2018-10-02T06:45:55.730Z,7.40
2018-10-02T06:48:23.128Z,7.50
2018-10-02T06:50:50.577Z,7.50
2018-10-02T06:53:17.919Z,7.70
2018-10-02T06:55:45.299Z,7.70
2018-10-02T06:58:12.758Z,7.60
2018-10-02T07:00:40.238Z,7.50
2018-10-02T07:03:07.733Z,7.50
2018-10-02T07:05:35.145Z,7.70
2018-10-02T07:08:02.505Z,7.80
2018-10-02T07:10:29.933Z,7.60
2018-10-02T07:12:57.361Z,7.50
2018-10-02T07:15:24.987Z,7.40
2018-10-02T07:17:52.461Z,7.40
2018-10-02T07:20:19.929Z,7.70
2018-10-02T07:22:47.309Z,7.80
2018-10-02T07:25:14.737Z,7.80
2018-10-02T07:27:42.218Z,7.80
2018-10-02T07:30:09.423Z,7.60
2018-10-02T07:32:36.858Z,7.80
2018-10-02T07:35:04.351Z,7.90
2018-10-02T07:37:31.677Z,7.90
2018-10-02T07:39:59.100Z,7.90
2018-10-02T07:42:26.614Z,7.90
2018-10-02T07:44:53.964Z,8.00
2018-10-02T07:47:21.434Z,8.10
2018-10-02T07:49:49.006Z,8.30
2018-10-02T07:52:16.419Z,8.50
2018-10-02T07:54:43.854Z,8.50
2018-10-02T07:57:11.290Z,8.80
2018-10-02T07:59:38.809Z,8.40
2018-10-02T08:02:06.827Z,8.20
2018-10-02T08:04:34.304Z,8.20
2018-10-02T08:07:01.682Z,8.40
2018-10-02T08:09:29.079Z,8.40
2018-10-02T08:11:56.564Z,8.80
2018-10-02T08:14:23.945Z,8.50
2018-10-02T08:16:51.413Z,8.50
2018-10-02T08:19:18.837Z,8.40
2018-10-02T08:21:46.315Z,8.50
2018-10-02T08:24:13.693Z,8.70
2018-10-02T08:26:41.217Z,9.10
2018-10-02T08:29:08.703Z,9.10
2018-10-02T08:31:36.119Z,9.20
2018-10-02T08:34:03.623Z,9.30
2018-10-02T08:36:31.294Z,9.60
2018-10-02T08:38:58.653Z,9.50
2018-10-02T08:41:26.070Z,9.40
2018-10-02T08:43:53.788Z,9.70
2018-10-02T08:46:21.182Z,9.70
2018-10-02T08:48:48.841Z,9.60
2018-10-02T08:51:16.430Z,9.50
2018-10-02T08:53:44.048Z,9.40
2018-10-02T08:56:11.444Z,9.40
2018-10-02T08:58:38.823Z,9.30
2018-10-02T09:01:07.016Z,9.20
2018-10-02T09:03:34.366Z,9.30
2018-10-02T09:06:01.862Z,9.30
2018-10-02T09:08:29.229Z,9.30
2018-10-02T09:11:03.374Z,9.30
2018-10-02T09:13:30.797Z,9.30
2018-10-02T09:15:58.404Z,9.50
2018-10-02T09:18:25.956Z,9.40
2018-10-02T09:20:53.865Z,9.40
2018-10-02T09:23:21.283Z,9.50
2018-10-02T09:25:48.681Z,9.60
2018-10-02T09:28:16.050Z,9.90
2018-10-02T09:30:49.319Z,9.90
2018-10-02T09:33:22.537Z,9.80
2018-10-02T09:35:55.749Z,9.80
2018-10-02T09:38:29.020Z,9.80
2018-10-02T09:41:02.303Z,10.00
2018-10-02T09:43:32.730Z,9.80
2018-10-02T09:46:00.386Z,9.70
2018-10-02T09:48:27.853Z,9.80
2018-10-02T09:50:55.147Z,9.80
2018-10-02T09:53:22.571Z,9.80
2018-10-02T09:55:49.932Z,9.70
2018-10-02T09:58:17.325Z,9.70
2018-10-02T10:00:50.400Z,9.70
2018-10-02T10:03:17.787Z,9.70
2018-10-02T10:05:45.227Z,9.70
2018-10-02T10:08:12.651Z,9.60
2018-10-02T10:10:40.140Z,9.70
2018-10-02T10:13:07.534Z,9.60
2018-10-02T10:15:34.949Z,9.70
2018-10-02T10:18:02.378Z,9.60
2018-10-02T10:20:29.839Z,9.70
2018-10-02T10:22:57.307Z,9.90
2018-10-02T10:25:26.013Z,10.10
2018-10-02T10:27:57.747Z,10.00
2018-10-02T10:30:25.120Z,10.10
2018-10-02T10:32:56.145Z,10.10
2018-10-02T10:35:26.930Z,10.10
2018-10-02T10:37:54.402Z,10.10
2018-10-02T10:40:21.813Z,10.00
2018-10-02T10:42:49.521Z,9.90
2018-10-02T10:45:18.223Z,9.60
2018-10-02T10:47:47.351Z,9.50
2018-10-02T10:50:14.754Z,9.40
2018-10-02T10:52:43.462Z,9.40
2018-10-02T10:55:20.915Z,9.30
2018-10-02T11:04:41.056Z,9.30
2018-10-02T11:07:11.470Z,9.20
2018-10-02T11:09:38.843Z,9.20
2018-10-02T11:12:06.282Z,9.20
2018-10-02T11:14:35.500Z,9.10
2018-10-02T11:17:03.215Z,9.10
2018-10-02T11:19:32.182Z,9.20
2018-10-02T11:22:04.160Z,9.30
2018-10-02T11:24:34.638Z,9.20
2018-10-02T11:27:02.356Z,9.20
2018-10-02T11:29:29.866Z,9.30
2018-10-02T11:31:57.252Z,9.30
2018-10-02T11:34:24.762Z,9.40
2018-10-02T11:36:55.563Z,9.50
2018-10-02T11:39:24.521Z,9.50
2018-10-02T11:41:51.894Z,9.40
2018-10-02T11:44:19.341Z,9.30
2018-10-02T11:46:46.691Z,9.40
2018-10-02T11:49:14.166Z,9.30
2018-10-02T11:51:41.573Z,9.30
2018-10-02T11:54:09.010Z,9.30
2018-10-02T11:56:36.462Z,9.30
2018-10-02T11:59:03.974Z,9.40
2018-10-02T12:01:31.667Z,9.40
2018-10-02T12:03:59.373Z,9.30
2018-10-02T12:06:27.135Z,9.40
2018-10-02T12:08:55.573Z,9.50
2018-10-02T12:11:23.423Z,9.40
2018-10-02T12:13:51.161Z,9.40
2018-10-02T12:16:18.579Z,9.60
2018-10-02T12:18:45.980Z,9.80
2018-10-02T12:21:13.458Z,9.70
2018-10-02T12:23:40.954Z,9.90
2018-10-02T12:26:08.338Z,10.00
2018-10-02T12:28:35.809Z,9.90
2018-10-02T12:31:03.355Z,9.90
2018-10-02T12:33:30.857Z,10.00
2018-10-02T12:35:58.377Z,9.90
2018-10-02T12:38:25.892Z,10.00
2018-10-02T12:40:53.184Z,10.10
2018-10-02T12:43:20.665Z,10.20
2018-10-02T12:45:48.041Z,10.30
2018-10-02T12:48:15.600Z,10.30
2018-10-02T12:50:43.179Z,10.40
2018-10-02T12:53:10.596Z,10.30
2018-10-02T12:55:38.142Z,10.30
2018-10-02T12:58:05.827Z,10.30
2018-10-02T13:00:33.345Z,10.30
2018-10-02T13:03:00.759Z,10.10
2018-10-02T13:05:28.285Z,9.80
2018-10-02T13:07:55.761Z,9.70
2018-10-02T13:10:23.195Z,9.70
2018-10-02T13:12:50.631Z,9.70
2018-10-02T13:15:18.071Z,9.70
2018-10-02T13:17:45.521Z,9.80
2018-10-02T13:20:13.027Z,9.80
2018-10-02T13:22:40.511Z,9.70
2018-10-02T13:25:07.856Z,9.70
2018-10-02T13:27:35.343Z,9.70
2018-10-02T13:30:03.051Z,9.60
2018-10-02T13:32:30.502Z,9.70
2018-10-02T13:34:57.969Z,9.60
2018-10-02T13:37:28.201Z,9.60
2018-10-02T13:40:04.989Z,9.60
2018-10-02T13:42:35.930Z,9.50
2018-10-02T13:45:03.497Z,9.50
2018-10-02T13:47:31.871Z,9.60
2018-10-02T13:49:59.399Z,9.70
2018-10-02T13:52:26.917Z,9.60
2018-10-02T13:54:57.469Z,9.50
2018-10-02T13:57:39.295Z,9.50
2018-10-02T14:00:22.701Z,9.50
2018-10-02T14:03:01.445Z,9.50
2018-10-02T14:05:28.861Z,9.50
2018-10-02T14:07:56.319Z,9.50
2018-10-02T14:10:23.795Z,9.50
2018-10-02T14:12:51.330Z,9.50
2018-10-02T14:15:18.737Z,9.50
2018-10-02T14:17:46.130Z,9.50
2018-10-02T14:20:13.471Z,9.80
2018-10-02T14:22:40.952Z,11.70
2018-10-02T14:25:08.408Z,11.40
2018-10-02T14:27:35.824Z,11.10
2018-10-02T14:30:03.454Z,10.20
2018-10-02T14:32:30.846Z,9.60
2018-10-02T14:34:58.302Z,9.50
2018-10-02T14:37:25.858Z,9.40
2018-10-02T14:39:53.454Z,9.30
2018-10-02T14:42:20.967Z,10.30
2018-10-02T14:44:48.314Z,10.30
2018-10-02T14:47:15.813Z,10.50
2018-10-02T14:49:43.381Z,10.20
2018-10-02T14:52:10.832Z,9.70
2018-10-02T14:54:38.343Z,9.60
2018-10-02T14:57:05.893Z,9.60
2018-10-02T14:59:33.331Z,9.60
2018-10-02T15:02:00.715Z,9.60
2018-10-02T15:04:28.166Z,9.70
2018-10-02T15:06:55.488Z,9.70
2018-10-02T15:09:23.000Z,9.60
2018-10-02T15:11:50.412Z,9.70
2018-10-02T15:14:17.807Z,9.70
2018-10-02T15:16:45.175Z,9.70
2018-10-02T15:19:12.611Z,9.70
2018-10-02T15:21:40.174Z,9.80
2018-10-02T15:24:07.694Z,9.80
2018-10-02T15:26:35.045Z,9.80
2018-10-02T15:29:02.615Z,9.80
2018-10-02T15:31:30.358Z,9.80
2018-10-02T15:33:57.918Z,9.80
2018-10-02T15:36:25.427Z,9.80
2018-10-02T15:38:52.952Z,9.90
2018-10-02T15:41:20.449Z,9.90
2018-10-02T15:43:47.879Z,9.90
2018-10-02T15:46:15.275Z,10.00
2018-10-02T15:48:42.704Z,10.00
2018-10-02T15:51:10.325Z,10.00
2018-10-02T15:53:37.623Z,10.00
2018-10-02T15:56:05.097Z,10.00
2018-10-02T15:58:32.540Z,10.00
2018-10-02T16:00:59.927Z,10.00
2018-10-02T16:03:27.445Z,10.00
2018-10-02T16:05:54.866Z,10.10
2018-10-02T16:08:22.315Z,10.10
2018-10-02T16:10:49.747Z,10.00
2018-10-02T16:13:17.199Z,10.00
2018-10-02T16:15:44.639Z,10.00
2018-10-02T16:18:12.149Z,10.00
2018-10-02T16:20:39.704Z,10.00
2018-10-02T16:23:07.188Z,10.00
2018-10-02T16:25:34.692Z,9.90
2018-10-02T16:28:02.193Z,9.90
2018-10-02T16:30:29.655Z,9.90
2018-10-02T16:32:57.413Z,9.80
2018-10-02T16:35:24.938Z,9.70
2018-10-02T16:37:52.371Z,9.80
2018-10-02T16:40:19.812Z,9.80
2018-10-02T16:42:47.242Z,9.70
2018-10-02T16:45:14.572Z,9.70
2018-10-02T16:47:42.008Z,9.60
2018-10-02T16:50:09.438Z,9.70
2018-10-02T16:52:37.017Z,9.60
2018-10-02T16:55:04.822Z,9.60
2018-10-02T16:57:32.204Z,9.50
2018-10-02T16:59:59.712Z,9.60
2018-10-02T17:02:27.262Z,9.60
2018-10-02T17:04:54.709Z,9.60
2018-10-02T17:07:22.054Z,9.70
2018-10-02T17:09:49.602Z,10.00
2018-10-02T17:12:17.169Z,9.80
2018-10-02T17:14:44.723Z,9.70
2018-10-02T17:17:12.168Z,9.70
2018-10-02T17:19:39.612Z,9.70
2018-10-02T17:22:07.055Z,9.60
2018-10-02T17:24:34.550Z,9.50
2018-10-02T17:27:02.086Z,9.70
2018-10-02T17:29:29.578Z,9.50
2018-10-02T17:31:57.091Z,9.50
2018-10-02T17:34:24.819Z,9.50
2018-10-02T17:36:52.250Z,9.40
2018-10-02T17:39:19.634Z,9.50
2018-10-02T17:41:47.080Z,9.50
2018-10-02T17:44:14.704Z,9.50
2018-10-02T17:46:42.218Z,9.50
2018-10-02T17:49:09.649Z,9.40
2018-10-02T17:51:37.033Z,9.40
2018-10-02T17:54:04.494Z,9.40
2018-10-02T17:56:31.915Z,9.40
2018-10-02T17:58:59.559Z,9.50
2018-10-02T18:01:27.010Z,9.50
2018-10-02T18:03:54.444Z,9.60
2018-10-02T18:06:21.930Z,9.60
2018-10-02T18:08:49.399Z,9.50
2018-10-02T18:11:16.887Z,9.60
2018-10-02T18:13:44.302Z,9.60
2018-10-02T18:16:11.728Z,9.60
2018-10-02T18:18:39.139Z,9.70
2018-10-02T18:21:06.765Z,9.60
2018-10-02T18:23:34.309Z,9.70
2018-10-02T18:26:01.866Z,9.70
2018-10-02T18:28:30.151Z,9.80
2018-10-02T18:30:57.568Z,9.80
2018-10-02T18:33:25.086Z,9.70
2018-10-02T18:35:52.535Z,9.70
2018-10-02T18:38:19.943Z,9.70
2018-10-02T18:40:47.400Z,9.70
2018-10-02T18:43:14.860Z,9.80
2018-10-02T18:45:42.312Z,9.80
2018-10-02T18:48:09.754Z,9.70
2018-10-02T18:50:37.075Z,9.80
2018-10-02T18:53:04.456Z,9.80
2018-10-02T18:55:32.104Z,9.80
2018-10-02T18:57:59.686Z,9.80
2018-10-02T19:00:27.150Z,9.90
2018-10-02T19:02:54.725Z,9.80
2018-10-02T19:05:22.174Z,9.90
2018-10-02T19:07:49.638Z,9.80
2018-10-02T19:10:17.239Z,9.90
2018-10-02T19:12:44.667Z,9.90
2018-10-02T19:15:12.196Z,9.90
2018-10-02T19:17:39.572Z,9.90
2018-10-02T19:20:12.741Z,9.90
2018-10-02T19:22:40.095Z,10.00
2018-10-02T19:26:13.103Z,10.00
2018-10-02T19:28:40.603Z,10.00
2018-10-02T19:31:13.837Z,9.90
2018-10-02T19:33:41.385Z,9.90
2018-10-02T19:36:08.804Z,9.90
2018-10-02T19:38:41.832Z,9.70
2018-10-02T19:41:09.324Z,9.70
2018-10-02T19:43:36.820Z,9.60
2018-10-02T19:46:09.942Z,9.70
2018-10-02T19:48:37.350Z,9.70
2018-10-02T19:51:10.612Z,9.60
2018-10-02T19:53:38.057Z,9.60
2018-10-02T19:56:05.622Z,9.60
2018-10-02T19:58:33.134Z,9.60
2018-10-02T20:01:00.466Z,9.60
2018-10-02T20:03:27.930Z,9.70
2018-10-02T20:05:55.287Z,9.70
2018-10-02T20:08:22.743Z,9.60
2018-10-02T20:10:50.197Z,9.70
2018-10-02T20:13:17.650Z,9.70
2018-10-02T20:15:45.150Z,9.70
2018-10-02T20:18:12.602Z,9.70
2018-10-02T20:20:39.996Z,9.70
2018-10-02T20:23:07.364Z,9.80
2018-10-02T20:25:35.101Z,9.90
2018-10-02T20:28:02.507Z,9.70
2018-10-02T20:30:31.344Z,9.80
2018-10-02T20:32:58.907Z,9.80
2018-10-02T20:35:26.337Z,9.70
2018-10-02T20:37:53.782Z,9.80
2018-10-02T20:40:21.576Z,9.90
2018-10-02T20:42:52.453Z,9.80
2018-10-02T20:45:20.125Z,9.80
2018-10-02T20:47:47.762Z,9.80
2018-10-02T20:50:15.245Z,9.70
2018-10-02T20:52:42.748Z,9.80
2018-10-02T20:55:10.220Z,9.80
2018-10-02T20:57:38.575Z,9.80
2018-10-02T21:00:06.151Z,9.80
2018-10-02T21:02:33.590Z,9.90
2018-10-02T21:05:01.058Z,9.80
2018-10-02T21:07:28.497Z,9.90
2018-10-02T21:09:55.863Z,9.90
2018-10-02T21:12:23.388Z,9.90
2018-10-02T21:14:51.604Z,9.80
2018-10-02T21:17:19.163Z,9.80
2018-10-02T21:19:46.616Z,9.80
2018-10-02T21:22:14.011Z,9.70
2018-10-02T21:24:41.515Z,9.80
2018-10-02T21:27:09.147Z,9.80
2018-10-02T21:29:36.710Z,9.90
2018-10-02T21:32:04.118Z,10.00
2018-10-02T21:34:31.666Z,10.00
2018-10-02T21:36:59.102Z,10.00
2018-10-02T21:39:26.591Z,10.10
2018-10-02T21:41:54.075Z,10.10
2018-10-02T21:44:21.572Z,10.10
2018-10-02T21:46:48.965Z,10.20
2018-10-02T21:49:16.543Z,10.20
2018-10-02T21:51:43.956Z,10.30
2018-10-02T21:54:11.476Z,10.20
2018-10-02T21:56:38.917Z,10.30
2018-10-02T21:59:06.457Z,10.30
2018-10-02T22:01:33.847Z,10.30
2018-10-02T22:04:01.317Z,10.30
2018-10-02T22:06:28.725Z,10.30
2018-10-02T22:08:56.525Z,10.30
2018-10-02T22:11:24.063Z,10.30
2018-10-02T22:13:51.420Z,10.30
2018-10-02T22:16:18.830Z,10.40
2018-10-02T22:18:46.511Z,10.40
2018-10-02T22:21:13.932Z,10.40
2018-10-02T22:23:41.435Z,10.40
2018-10-02T22:26:08.871Z,10.40
2018-10-02T22:28:36.263Z,10.40
2018-10-02T22:31:03.703Z,10.40
2018-10-02T22:33:31.184Z,10.40
2018-10-02T22:35:58.655Z,10.40
2018-10-02T22:38:26.110Z,10.40
2018-10-02T22:40:53.576Z,10.40
2018-10-02T22:43:21.029Z,10.60
2018-10-02T22:45:48.614Z,10.50
2018-10-02T22:48:16.114Z,10.50
2018-10-02T22:50:43.526Z,10.40
2018-10-02T22:53:11.218Z,10.50
2018-10-02T22:55:38.762Z,10.50
2018-10-02T22:58:06.300Z,10.50
2018-10-02T23:00:33.747Z,10.60
2018-10-02T23:03:01.123Z,10.50
2018-10-02T23:05:28.573Z,10.50
2018-10-02T23:07:55.973Z,10.50
2018-10-02T23:10:23.399Z,10.50
2018-10-02T23:12:50.739Z,10.50
2018-10-02T23:15:18.249Z,10.60
2018-10-02T23:17:45.706Z,10.50
2018-10-02T23:20:13.165Z,10.50
2018-10-02T23:22:40.605Z,10.50
2018-10-02T23:25:08.169Z,10.50
2018-10-02T23:27:35.539Z,10.50
2018-10-02T23:30:02.985Z,10.60
2018-10-02T23:32:30.504Z,10.50
2018-10-02T23:34:57.869Z,10.50
2018-10-02T23:37:25.347Z,10.50
2018-10-02T23:39:52.875Z,10.50
2018-10-02T23:42:20.242Z,10.60
2018-10-02T23:44:54.483Z,10.50
2018-10-02T23:47:21.903Z,10.60
2018-10-02T23:49:49.497Z,10.50
2018-10-02T23:52:16.913Z,10.50
2018-10-02T23:54:44.407Z,10.60
2018-10-02T23:57:11.827Z,10.60
2018-10-02T23:59:39.303Z,10.60
